Time;durP1;ratioP1;P1;durP2;ratioP2;P2;SDS_P1;SDS_P2;PMS_P1;PMS_P2;Temp;Humidity;BMP_temperature;BMP_pressure;BME280_temperature;BME280_humidity;BME280_pressure;Samples;Min_cycle;Max_cycle;Signal;HPM_P1;HPM_P2
2023/07/17 00:01:31;;;;;;;90.25;53.42;;;19.40;76.40;;;;;;4960312;28;96303;-40
2023/07/17 00:03:57;;;;;;;91.30;53.35;;;19.40;78.40;;;;;;4967060;28;96718;-39
2023/07/17 00:06:22;;;;;;;91.47;53.83;;;19.30;77.90;;;;;;4965370;28;95541;-39
2023/07/17 00:08:48;;;;;;;90.07;53.25;;;19.30;78.70;;;;;;4959577;28;96701;-39
2023/07/17 00:11:13;;;;;;;89.32;53.20;;;19.30;77.40;;;;;;4971435;28;96106;-40
2023/07/17 00:13:39;;;;;;;90.00;53.63;;;19.30;78.40;;;;;;4962476;28;95718;-39
2023/07/17 00:16:05;;;;;;;91.25;54.08;;;19.30;78.50;;;;;;4968980;28;94552;-39
2023/07/17 00:18:34;;;;;;;90.38;53.60;;;19.20;78.90;;;;;;4964515;28;95887;-41
2023/07/17 00:21:04;;;;;;;90.30;53.50;;;19.20;79.60;;;;;;4969141;28;94873;-39
2023/07/17 00:23:29;;;;;;;90.55;53.50;;;19.20;78.10;;;;;;4967374;28;98732;-40
2023/07/17 00:25:55;;;;;;;90.82;53.78;;;19.20;77.30;;;;;;4965281;28;94762;-39
2023/07/17 00:28:20;;;;;;;90.65;53.40;;;19.20;79.70;;;;;;4964403;28;95751;-40
2023/07/17 00:30:47;;;;;;;91.07;53.75;;;19.20;78.90;;;;;;4955371;28;96546;-40
2023/07/17 00:33:13;;;;;;;89.88;53.45;;;19.20;81.30;;;;;;4964500;28;96739;-39
2023/07/17 00:35:39;;;;;;;89.72;53.20;;;19.20;79.90;;;;;;4965668;28;95330;-40
2023/07/17 00:38:05;;;;;;;90.25;53.63;;;19.10;79.10;;;;;;4963868;28;96108;-41
2023/07/17 00:40:30;;;;;;;90.97;53.60;;;19.10;79.00;;;;;;4969691;28;94865;-43
2023/07/17 00:43:00;;;;;;;89.80;53.47;;;19.10;77.30;;;;;;4969818;28;96671;-42
2023/07/17 00:45:30;;;;;;;89.03;53.33;;;19.10;78.40;;;;;;4967614;28;96344;-44
2023/07/17 00:47:57;;;;;;;89.43;53.35;;;19.10;79.80;;;;;;4964784;28;97750;-43
2023/07/17 00:50:22;;;;;;;90.47;53.33;;;19.10;79.70;;;;;;4949686;28;97421;-42
2023/07/17 00:52:49;;;;;;;91.47;53.53;;;19.10;78.50;;;;;;4968707;28;94984;-41
2023/07/17 00:55:15;;;;;;;89.00;53.25;;;19.00;78.10;;;;;;4971328;28;96135;-41
2023/07/17 00:57:41;;;;;;;91.03;53.38;;;19.00;78.10;;;;;;4966699;28;96966;-42
2023/07/17 01:00:08;;;;;;;89.53;53.42;;;19.00;77.20;;;;;;4966265;28;94894;-43
2023/07/17 01:02:37;;;;;;;90.97;53.65;;;19.00;79.60;;;;;;4963312;28;94672;-43
2023/07/17 01:05:03;;;;;;;90.85;53.35;;;19.00;79.30;;;;;;4965898;28;98096;-45
2023/07/17 01:07:29;;;;;;;89.63;53.53;;;19.00;77.60;;;;;;4966624;28;94888;-44
2023/07/17 01:09:55;;;;;;;89.68;53.42;;;19.00;79.40;;;;;;4970208;28;95135;-43
2023/07/17 01:12:20;;;;;;;90.55;53.67;;;18.90;79.30;;;;;;4969383;28;95929;-43
2023/07/17 01:14:47;;;;;;;89.88;53.10;;;19.00;82.10;;;;;;4950047;28;94727;-44
2023/07/17 01:17:12;;;;;;;89.40;53.45;;;18.90;79.00;;;;;;4964171;28;95016;-42
2023/07/17 01:19:38;;;;;;;89.18;53.22;;;18.90;79.60;;;;;;4964890;28;94971;-42
2023/07/17 01:22:12;;;;;;;90.43;53.65;;;18.90;78.80;;;;;;4967592;28;96151;-42
2023/07/17 01:24:38;;;;;;;89.40;53.10;;;18.90;81.40;;;;;;4967289;28;96039;-44
2023/07/17 01:27:04;;;;;;;89.88;53.53;;;18.90;77.10;;;;;;4968065;28;96268;-42
2023/07/17 01:29:29;;;;;;;89.47;53.42;;;18.90;79.60;;;;;;4975442;28;94218;-42
2023/07/17 01:31:55;;;;;;;89.28;53.13;;;18.90;77.70;;;;;;4973516;28;96896;-43
2023/07/17 01:34:20;;;;;;;90.35;53.65;;;18.90;76.70;;;;;;4963752;28;95741;-41
2023/07/17 01:36:46;;;;;;;90.03;53.80;;;18.90;78.20;;;;;;4950811;28;97081;-42
2023/07/17 01:39:12;;;;;;;90.20;53.53;;;18.90;81.00;;;;;;4968843;28;94979;-42
2023/07/17 01:41:37;;;;;;;92.82;53.70;;;18.80;78.30;;;;;;4967236;28;96120;-44
2023/07/17 01:44:03;;;;;;;89.15;53.17;;;18.80;79.60;;;;;;4966520;28;99511;-42
2023/07/17 01:46:29;;;;;;;89.80;53.85;;;18.80;79.50;;;;;;4964537;28;96006;-43
2023/07/17 01:48:55;;;;;;;88.55;53.15;;;18.80;80.20;;;;;;4969638;28;95113;-44
2023/07/17 01:51:21;;;;;;;89.63;53.40;;;18.80;77.40;;;;;;4965419;28;96654;-44
2023/07/17 01:53:46;;;;;;;90.82;53.40;;;18.80;78.00;;;;;;4967224;28;98252;-42
2023/07/17 01:56:12;;;;;;;89.78;53.28;;;18.80;79.00;;;;;;4966581;28;98579;-42
2023/07/17 01:58:37;;;;;;;89.43;53.65;;;18.70;79.40;;;;;;4967235;28;96192;-41
2023/07/17 02:01:03;;;;;;;88.85;53.15;;;18.70;81.50;;;;;;4971856;28;96533;-45
2023/07/17 02:03:29;;;;;;;89.75;53.50;;;18.70;78.30;;;;;;4967841;28;96805;-43
2023/07/17 02:05:55;;;;;;;89.85;53.15;;;18.70;81.90;;;;;;4964749;28;96109;-42
2023/07/17 02:08:21;;;;;;;89.78;53.25;;;18.70;79.60;;;;;;4966378;28;95075;-40
2023/07/17 02:10:52;;;;;;;89.50;53.80;;;18.70;78.80;;;;;;4965582;28;97841;-39
2023/07/17 02:13:17;;;;;;;89.35;53.45;;;18.60;83.10;;;;;;4965330;28;95295;-40
2023/07/17 02:15:44;;;;;;;87.97;53.13;;;18.60;78.30;;;;;;4967673;28;97692;-39
2023/07/17 02:18:09;;;;;;;88.40;53.40;;;18.60;79.10;;;;;;4970735;28;95560;-39
2023/07/17 02:20:35;;;;;;;89.45;53.28;;;18.60;80.00;;;;;;4965042;28;96349;-39
2023/07/17 02:23:01;;;;;;;89.72;53.38;;;18.50;79.30;;;;;;4967791;28;94832;-39
2023/07/17 02:25:26;;;;;;;88.63;53.15;;;18.50;78.80;;;;;;4965948;28;96806;-39
2023/07/17 02:27:52;;;;;;;88.47;53.05;;;18.50;83.00;;;;;;4962552;28;97725;-40
2023/07/17 02:30:18;;;;;;;90.43;53.53;;;18.50;79.90;;;;;;4965064;28;96219;-39
2023/07/17 02:32:44;;;;;;;88.82;53.25;;;18.50;79.30;;;;;;4966464;28;97964;-39
2023/07/17 02:35:10;;;;;;;89.95;52.97;;;18.50;79.00;;;;;;4963459;28;98152;-39
2023/07/17 02:37:35;;;;;;;89.72;53.53;;;18.50;79.20;;;;;;4967076;28;99008;-40
2023/07/17 02:40:03;;;;;;;88.68;53.08;;;18.40;80.00;;;;;;4968021;28;98398;-40
2023/07/17 02:42:29;;;;;;;89.05;52.83;;;18.40;80.30;;;;;;4969609;28;97418;-39
2023/07/17 02:44:55;;;;;;;88.68;53.42;;;18.40;78.00;;;;;;4964521;28;98403;-39
2023/07/17 02:47:20;;;;;;;89.57;53.08;;;18.40;82.20;;;;;;4964040;28;98700;-39
2023/07/17 02:49:46;;;;;;;89.38;53.50;;;18.40;80.00;;;;;;4963033;28;95677;-40
2023/07/17 02:52:11;;;;;;;88.63;53.17;;;18.30;80.90;;;;;;4970622;28;99374;-41
2023/07/17 02:54:37;;;;;;;89.28;53.40;;;18.30;79.80;;;;;;4963033;28;95073;-41
2023/07/17 02:57:04;;;;;;;88.72;53.33;;;18.30;81.30;;;;;;4964381;28;98914;-39
2023/07/17 02:59:30;;;;;;;90.30;53.35;;;18.30;81.30;;;;;;4962942;28;97262;-42
2023/07/17 03:01:56;;;;;;;90.03;53.20;;;18.30;81.00;;;;;;4962271;28;94737;-42
2023/07/17 03:04:21;;;;;;;89.18;53.13;;;18.30;80.40;;;;;;4963446;28;97058;-43
2023/07/17 03:06:48;;;;;;;88.60;53.00;;;18.20;82.30;;;;;;4961599;28;94283;-43
2023/07/17 03:09:13;;;;;;;89.18;53.47;;;18.20;78.20;;;;;;4960418;28;94983;-42
2023/07/17 03:11:39;;;;;;;88.63;53.05;;;18.20;79.40;;;;;;4963919;28;98185;-44
2023/07/17 03:14:05;;;;;;;88.93;53.13;;;18.20;80.50;;;;;;4965487;28;97468;-44
2023/07/17 03:16:30;;;;;;;89.32;53.13;;;18.20;79.10;;;;;;4965610;28;96277;-42
2023/07/17 03:18:57;;;;;;;89.13;53.30;;;18.20;80.80;;;;;;4965633;28;95837;-40
2023/07/17 03:21:22;;;;;;;90.15;53.28;;;18.20;79.50;;;;;;4965572;28;95191;-40
2023/07/17 03:23:48;;;;;;;90.13;53.25;;;18.10;80.20;;;;;;4974492;28;95271;-40
2023/07/17 03:26:14;;;;;;;88.57;53.15;;;18.10;78.00;;;;;;4968886;28;96108;-40
2023/07/17 03:28:39;;;;;;;88.85;53.28;;;18.10;78.90;;;;;;4976874;28;95071;-40
2023/07/17 03:31:07;;;;;;;89.22;53.40;;;18.10;79.00;;;;;;4969954;28;97172;-40
2023/07/17 03:33:33;;;;;;;88.85;53.45;;;18.10;77.90;;;;;;4965607;28;95317;-40
2023/07/17 03:35:59;;;;;;;90.00;53.63;;;18.00;79.20;;;;;;4963526;28;94978;-40
2023/07/17 03:38:25;;;;;;;90.35;53.58;;;18.00;77.70;;;;;;4961776;28;97485;-41
2023/07/17 03:40:50;;;;;;;90.88;53.55;;;18.00;78.90;;;;;;4967170;28;97763;-39
2023/07/17 03:43:16;;;;;;;90.15;53.70;;;18.00;80.10;;;;;;4971822;28;95739;-40
2023/07/17 03:45:41;;;;;;;88.90;53.33;;;18.00;80.40;;;;;;4962670;28;96040;-40
2023/07/17 03:48:07;;;;;;;89.38;53.70;;;18.00;80.90;;;;;;4965944;28;94927;-40
2023/07/17 03:50:32;;;;;;;89.05;53.53;;;18.00;78.10;;;;;;4959555;28;101565;-39
2023/07/17 03:52:58;;;;;;;88.55;53.53;;;18.00;79.30;;;;;;4959947;28;96001;-40
2023/07/17 03:55:24;;;;;;;89.75;53.58;;;17.90;81.40;;;;;;4968406;28;96404;-39
2023/07/17 03:57:49;;;;;;;89.10;53.45;;;17.90;79.60;;;;;;4962772;28;97114;-39
2023/07/17 04:00:15;;;;;;;87.82;53.15;;;17.90;81.10;;;;;;4961340;28;95231;-40
2023/07/17 04:02:42;;;;;;;87.93;52.92;;;17.90;79.00;;;;;;4964328;28;95813;-39
2023/07/17 04:05:08;;;;;;;91.07;53.10;;;17.90;78.80;;;;;;4962038;28;98496;-40
2023/07/17 04:07:33;;;;;;;88.25;53.20;;;17.90;79.30;;;;;;4963078;28;95025;-42
2023/07/17 04:09:59;;;;;;;88.72;53.60;;;17.90;80.00;;;;;;4966775;28;95656;-39
2023/07/17 04:12:24;;;;;;;88.68;53.65;;;17.90;79.40;;;;;;4966228;28;96389;-39
2023/07/17 04:14:50;;;;;;;88.25;53.33;;;17.90;78.80;;;;;;4964899;28;94843;-39
2023/07/17 04:17:16;;;;;;;88.82;53.35;;;17.90;78.40;;;;;;4964705;28;94332;-39
2023/07/17 04:19:41;;;;;;;89.00;53.85;;;17.90;79.00;;;;;;4971070;28;94501;-39
2023/07/17 04:22:07;;;;;;;90.75;53.47;;;18.00;78.30;;;;;;4961877;28;96251;-39
2023/07/17 04:24:33;;;;;;;89.13;53.35;;;18.00;80.30;;;;;;4951063;28;94950;-40
2023/07/17 04:26:59;;;;;;;88.28;53.60;;;18.00;79.20;;;;;;4962017;28;98122;-39
2023/07/17 04:29:25;;;;;;;90.07;53.88;;;18.00;78.90;;;;;;4965238;28;95924;-40
2023/07/17 04:31:50;;;;;;;89.22;53.55;;;18.00;78.30;;;;;;4973126;28;94745;-39
2023/07/17 04:34:16;;;;;;;89.80;53.55;;;18.00;78.60;;;;;;4963881;28;95460;-39
2023/07/17 04:36:43;;;;;;;90.05;53.75;;;18.00;78.30;;;;;;4962921;28;95063;-40
2023/07/17 04:39:09;;;;;;;88.95;53.50;;;18.00;79.60;;;;;;4972667;28;95657;-42
2023/07/17 04:41:34;;;;;;;90.07;53.85;;;18.00;79.50;;;;;;4975320;28;95909;-39
2023/07/17 04:44:00;;;;;;;89.57;54.17;;;18.00;78.50;;;;;;4972701;28;94163;-39
2023/07/17 04:46:25;;;;;;;89.10;53.70;;;18.00;78.10;;;;;;4973805;28;95441;-39
2023/07/17 04:48:51;;;;;;;90.60;54.05;;;18.00;77.40;;;;;;4970746;28;96701;-39
2023/07/17 04:51:17;;;;;;;88.53;53.55;;;18.00;78.40;;;;;;4962939;28;96692;-40
2023/07/17 04:53:42;;;;;;;88.28;53.28;;;18.00;78.60;;;;;;4961533;28;97299;-39
2023/07/17 04:56:08;;;;;;;88.80;53.80;;;18.00;80.60;;;;;;4969038;28;97601;-39
2023/07/17 04:58:34;;;;;;;90.45;54.08;;;18.00;78.00;;;;;;4968463;28;98488;-39
2023/07/17 05:01:01;;;;;;;89.68;54.08;;;18.00;77.10;;;;;;4964786;28;97948;-39
2023/07/17 05:03:30;;;;;;;89.97;54.05;;;18.00;77.10;;;;;;4966086;28;96453;-41
2023/07/17 05:05:56;;;;;;;88.93;53.95;;;18.00;77.40;;;;;;4963273;28;97592;-39
2023/07/17 05:08:23;;;;;;;88.10;53.55;;;18.00;77.40;;;;;;4968846;28;94482;-39
2023/07/17 05:10:56;;;;;;;90.28;54.00;;;18.00;78.30;;;;;;4968858;28;96728;-39
2023/07/17 05:13:22;;;;;;;91.20;53.85;;;18.00;78.10;;;;;;4964971;28;98779;-39
2023/07/17 05:15:47;;;;;;;89.57;53.85;;;18.00;76.70;;;;;;4965469;28;97925;-39
2023/07/17 05:18:13;;;;;;;88.05;53.42;;;18.00;76.10;;;;;;4944814;28;94747;-43
2023/07/17 05:20:38;;;;;;;88.38;53.75;;;18.10;79.40;;;;;;4948607;28;94839;-43
2023/07/17 05:23:04;;;;;;;90.68;54.10;;;18.10;79.30;;;;;;4953343;28;95054;-42
2023/07/17 05:25:30;;;;;;;88.40;53.47;;;18.10;78.40;;;;;;4954452;28;94681;-42
2023/07/17 05:27:55;;;;;;;88.32;53.63;;;18.10;80.20;;;;;;4953813;28;94849;-42
2023/07/17 05:30:21;;;;;;;89.43;53.70;;;18.20;78.80;;;;;;4951905;28;96758;-41
2023/07/17 05:32:46;;;;;;;89.97;53.90;;;18.20;77.60;;;;;;4942678;28;97051;-44
2023/07/17 05:35:12;;;;;;;89.25;53.97;;;18.20;79.00;;;;;;4947516;28;94639;-43
2023/07/17 05:37:38;;;;;;;90.18;54.33;;;18.20;76.20;;;;;;4948732;28;95562;-44
2023/07/17 05:40:05;;;;;;;89.38;54.15;;;18.20;77.70;;;;;;4948128;28;95831;-42
2023/07/17 05:42:30;;;;;;;90.35;54.33;;;18.30;76.70;;;;;;4948102;28;97136;-43
2023/07/17 05:44:56;;;;;;;89.07;54.15;;;18.20;75.80;;;;;;4944437;28;95975;-42
2023/07/17 05:47:22;;;;;;;89.38;53.90;;;18.30;76.30;;;;;;4950153;28;94682;-42
2023/07/17 05:49:47;;;;;;;90.35;54.28;;;18.30;77.20;;;;;;4951385;28;94697;-43
2023/07/17 05:52:13;;;;;;;89.97;54.22;;;18.30;75.70;;;;;;4948562;28;95320;-42
2023/07/17 05:54:38;;;;;;;89.72;53.95;;;18.40;75.40;;;;;;4945831;28;95048;-41
2023/07/17 05:57:04;;;;;;;90.60;54.17;;;18.40;74.60;;;;;;4948802;28;95499;-43
2023/07/17 05:59:30;;;;;;;89.72;54.40;;;18.50;77.20;;;;;;4946843;28;98638;-42
2023/07/17 06:01:55;;;;;;;89.93;54.08;;;18.50;74.90;;;;;;4948085;28;96480;-43
2023/07/17 06:04:21;;;;;;;91.75;54.42;;;18.50;78.20;;;;;;4942939;28;97239;-41
2023/07/17 06:06:47;;;;;;;89.90;54.17;;;18.60;76.30;;;;;;4943432;28;97989;-41
2023/07/17 06:09:12;;;;;;;90.95;54.08;;;18.60;77.20;;;;;;4945659;28;95565;-41
2023/07/17 06:11:38;;;;;;;89.68;54.03;;;18.60;76.80;;;;;;4944170;28;95052;-43
2023/07/17 06:14:04;;;;;;;90.78;54.25;;;18.70;78.70;;;;;;4947222;28;94917;-43
2023/07/17 06:16:29;;;;;;;89.88;54.00;;;18.70;75.40;;;;;;4947865;28;95257;-43
2023/07/17 06:18:55;;;;;;;90.95;54.28;;;18.80;75.40;;;;;;4955715;28;94943;-43
2023/07/17 06:21:21;;;;;;;91.03;54.47;;;18.80;73.40;;;;;;4962624;28;94402;-44
2023/07/17 06:23:47;;;;;;;90.30;54.17;;;18.90;75.70;;;;;;4964055;28;96574;-42
2023/07/17 06:26:13;;;;;;;89.93;53.83;;;18.90;75.30;;;;;;4966127;28;95761;-44
2023/07/17 06:28:39;;;;;;;91.35;54.53;;;18.90;78.00;;;;;;4961297;28;98975;-43
2023/07/17 06:31:05;;;;;;;90.88;54.25;;;18.90;75.60;;;;;;4950414;28;95710;-44
2023/07/17 06:33:34;;;;;;;91.35;54.38;;;19.00;74.70;;;;;;4969074;28;95148;-42
2023/07/17 06:36:00;;;;;;;90.22;54.00;;;19.00;75.50;;;;;;4967126;28;95920;-43
2023/07/17 06:38:26;;;;;;;91.15;54.65;;;19.10;76.60;;;;;;4967359;28;99182;-43
2023/07/17 06:40:53;;;;;;;90.45;54.38;;;19.10;77.40;;;;;;4967942;28;95451;-43
2023/07/17 06:43:18;;;;;;;91.88;54.25;;;19.10;76.30;;;;;;4968221;28;95433;-44
2023/07/17 06:45:44;;;;;;;91.93;54.40;;;19.20;74.40;;;;;;4964696;28;97969;-44
2023/07/17 06:48:10;;;;;;;91.78;54.22;;;19.30;77.80;;;;;;4959860;28;96384;-42
2023/07/17 06:50:35;;;;;;;92.53;54.70;;;19.30;77.50;;;;;;4966087;28;96109;-42
2023/07/17 06:53:01;;;;;;;90.97;54.55;;;19.30;77.20;;;;;;4967311;28;96888;-43
2023/07/17 06:55:27;;;;;;;92.30;54.45;;;19.30;76.00;;;;;;4965970;28;95418;-42
2023/07/17 06:57:53;;;;;;;91.07;54.67;;;19.30;73.60;;;;;;4967963;28;95154;-41
2023/07/17 07:00:19;;;;;;;90.63;54.08;;;19.30;76.70;;;;;;4960720;28;95667;-44
2023/07/17 07:02:44;;;;;;;90.57;54.33;;;19.30;75.70;;;;;;4972263;28;94797;-43
2023/07/17 07:05:10;;;;;;;95.15;56.85;;;19.40;73.20;;;;;;4970767;28;94653;-40
2023/07/17 07:07:36;;;;;;;97.38;56.88;;;19.40;74.60;;;;;;4972151;28;95607;-39
2023/07/17 07:10:01;;;;;;;96.85;56.92;;;19.60;74.40;;;;;;4969903;28;97538;-40
2023/07/17 07:12:27;;;;;;;98.47;56.47;;;19.70;74.00;;;;;;4968416;28;96530;-40
2023/07/17 07:14:53;;;;;;;101.93;56.75;;;20.00;73.70;;;;;;4954138;28;95569;-39
2023/07/17 07:17:18;;;;;;;96.18;56.55;;;19.90;73.10;;;;;;4970292;28;99596;-39
2023/07/17 07:19:44;;;;;;;97.38;56.80;;;20.00;72.70;;;;;;4963426;28;97259;-39
2023/07/17 07:22:09;;;;;;;98.60;57.28;;;20.00;72.50;;;;;;4967037;28;94696;-40
2023/07/17 07:24:35;;;;;;;100.85;57.03;;;20.10;72.70;;;;;;4966103;28;96746;-40
2023/07/17 07:27:01;;;;;;;102.47;57.60;;;20.30;70.90;;;;;;4966968;28;94735;-39
2023/07/17 07:29:27;;;;;;;97.68;57.20;;;20.40;71.40;;;;;;4975489;28;96939;-39
2023/07/17 07:31:52;;;;;;;97.28;57.30;;;20.40;69.70;;;;;;4969254;28;98716;-39
2023/07/17 07:34:18;;;;;;;96.65;57.63;;;20.30;69.50;;;;;;4973299;28;94186;-40
2023/07/17 07:36:43;;;;;;;96.45;57.25;;;20.30;70.50;;;;;;4968006;28;96446;-40
2023/07/17 07:39:09;;;;;;;101.22;57.05;;;20.30;69.00;;;;;;4970840;28;95136;-40
2023/07/17 07:41:36;;;;;;;99.80;57.58;;;20.40;69.20;;;;;;4970229;28;95919;-40
2023/07/17 07:44:01;;;;;;;99.93;57.60;;;20.50;68.90;;;;;;4971654;28;95150;-40
2023/07/17 07:46:28;;;;;;;98.03;57.10;;;20.50;68.10;;;;;;4967489;28;95821;-40
2023/07/17 07:48:54;;;;;;;98.18;57.45;;;20.60;67.60;;;;;;4967343;28;97550;-41
2023/07/17 07:51:19;;;;;;;97.25;57.33;;;20.50;67.00;;;;;;4951378;28;97573;-40
2023/07/17 07:53:45;;;;;;;99.35;57.33;;;20.50;67.80;;;;;;4973001;28;95963;-40
2023/07/17 07:56:11;;;;;;;100.07;57.53;;;20.60;66.00;;;;;;4976937;28;96553;-40
2023/07/17 07:58:37;;;;;;;98.13;56.63;;;20.60;66.50;;;;;;4970296;28;94478;-41
2023/07/17 08:01:02;;;;;;;100.38;57.78;;;20.50;64.30;;;;;;4977751;28;95180;-41
2023/07/17 08:03:29;;;;;;;97.00;57.10;;;20.50;65.50;;;;;;4973661;28;95917;-42
2023/07/17 08:05:55;;;;;;;98.75;57.15;;;20.70;65.90;;;;;;4973082;28;100329;-41
2023/07/17 08:08:20;;;;;;;101.03;57.58;;;20.80;65.70;;;;;;4977793;28;95279;-41
2023/07/17 08:10:46;;;;;;;99.95;57.13;;;20.90;64.20;;;;;;4972606;28;99015;-41
2023/07/17 08:13:12;;;;;;;98.85;56.67;;;20.90;65.20;;;;;;4975132;28;95041;-45
2023/07/17 08:15:37;;;;;;;114.32;60.13;;;20.80;65.40;;;;;;4972504;28;94830;-41
2023/07/17 08:18:03;;;;;;;101.28;58.47;;;21.00;65.50;;;;;;4963468;28;97168;-42
2023/07/17 08:20:29;;;;;;;99.72;58.22;;;21.00;65.40;;;;;;4966193;28;96682;-41
2023/07/17 08:22:55;;;;;;;101.20;58.55;;;21.10;64.90;;;;;;4968442;28;96459;-43
2023/07/17 08:25:23;;;;;;;103.65;57.83;;;21.20;64.30;;;;;;4961363;28;96134;-42
2023/07/17 08:27:49;;;;;;;97.78;57.63;;;21.20;64.20;;;;;;4955397;28;96257;-40
2023/07/17 08:30:15;;;;;;;99.47;57.22;;;21.20;63.70;;;;;;4962824;28;97865;-44
2023/07/17 08:32:41;;;;;;;101.85;57.58;;;21.30;63.50;;;;;;4966929;28;95023;-41
2023/07/17 08:35:07;;;;;;;99.18;57.85;;;21.40;63.90;;;;;;4969637;28;97635;-42
2023/07/17 08:37:33;;;;;;;97.22;57.22;;;21.40;63.00;;;;;;4947616;28;96754;-41
2023/07/17 08:39:59;;;;;;;99.85;57.38;;;21.30;62.10;;;;;;4967307;28;94864;-41
2023/07/17 08:42:25;;;;;;;97.43;56.85;;;21.20;62.50;;;;;;4973181;28;94685;-41
2023/07/17 08:44:52;;;;;;;96.53;57.15;;;21.20;63.00;;;;;;4971126;28;94806;-41
2023/07/17 08:47:18;;;;;;;98.97;57.08;;;21.40;60.70;;;;;;4959217;28;97806;-41
2023/07/17 08:49:47;;;;;;;100.85;57.13;;;21.40;60.60;;;;;;4965930;28;95557;-40
2023/07/17 08:52:14;;;;;;;96.05;57.00;;;21.50;61.10;;;;;;4972469;28;95831;-40
2023/07/17 08:54:40;;;;;;;98.85;56.63;;;21.60;61.30;;;;;;4968182;28;100749;-40
2023/07/17 08:57:06;;;;;;;99.72;57.38;;;21.60;59.60;;;;;;4971776;28;98641;-41
2023/07/17 08:59:34;;;;;;;99.47;57.00;;;21.50;60.00;;;;;;4968224;28;94696;-41
2023/07/17 09:02:00;;;;;;;98.45;57.33;;;21.30;61.00;;;;;;4971223;28;95273;-42
2023/07/17 09:04:27;;;;;;;96.45;56.78;;;21.30;62.00;;;;;;4967607;28;94582;-42
2023/07/17 09:06:52;;;;;;;96.38;56.85;;;21.30;60.80;;;;;;4973786;28;98546;-40
2023/07/17 09:09:19;;;;;;;95.22;57.13;;;21.30;60.50;;;;;;4966443;28;94871;-41
2023/07/17 09:11:44;;;;;;;97.97;57.03;;;21.30;59.80;;;;;;4970777;28;94383;-40
2023/07/17 09:14:10;;;;;;;98.18;57.00;;;21.20;60.60;;;;;;4947617;28;97392;-40
2023/07/17 09:16:38;;;;;;;99.80;57.17;;;21.20;60.70;;;;;;4968238;28;94740;-40
2023/07/17 09:19:04;;;;;;;99.55;57.30;;;21.20;61.70;;;;;;4967061;28;96827;-40
2023/07/17 09:21:29;;;;;;;97.55;56.83;;;21.30;62.30;;;;;;4969471;28;98556;-41
2023/07/17 09:23:56;;;;;;;96.55;56.72;;;21.40;61.50;;;;;;4973102;28;96931;-41
2023/07/17 09:26:24;;;;;;;97.43;56.55;;;21.40;60.70;;;;;;4974204;28;95216;-41
2023/07/17 09:28:55;;;;;;;100.07;57.50;;;21.40;60.70;;;;;;4969955;28;95248;-42
2023/07/17 09:31:31;;;;;;;98.20;57.22;;;21.50;62.10;;;;;;4965920;28;96665;-42
2023/07/17 09:34:04;;;;;;;101.50;57.05;;;21.60;60.90;;;;;;4967465;28;96562;-43
2023/07/17 09:36:30;;;;;;;99.47;57.00;;;21.70;60.10;;;;;;4972395;28;98077;-42
2023/07/17 09:38:57;;;;;;;99.05;57.05;;;21.70;61.00;;;;;;4969566;28;95098;-40
2023/07/17 09:41:27;;;;;;;97.32;56.92;;;21.80;60.40;;;;;;4969698;28;95491;-43
2023/07/17 09:44:00;;;;;;;98.45;57.20;;;21.80;58.10;;;;;;4968027;28;96713;-45
2023/07/17 09:46:27;;;;;;;97.30;57.28;;;21.90;59.00;;;;;;4970941;28;95195;-42
2023/07/17 09:48:54;;;;;;;95.10;56.63;;;22.00;58.10;;;;;;4974342;28;95995;-41
2023/07/17 09:51:21;;;;;;;97.22;57.35;;;22.00;59.20;;;;;;4972658;28;97605;-42
2023/07/17 09:53:47;;;;;;;96.93;57.25;;;22.00;58.20;;;;;;4970252;28;99529;-43
2023/07/17 09:56:15;;;;;;;97.65;57.05;;;22.00;58.90;;;;;;4969524;28;95746;-44
2023/07/17 09:58:48;;;;;;;95.75;56.65;;;22.00;58.90;;;;;;4972047;28;97335;-42
2023/07/17 10:01:19;;;;;;;98.70;57.08;;;22.10;58.50;;;;;;4945262;28;93794;-40
2023/07/17 10:03:47;;;;;;;97.82;57.45;;;22.10;58.70;;;;;;4968546;28;98688;-42
2023/07/17 10:06:20;;;;;;;96.63;56.78;;;22.10;59.30;;;;;;4967762;28;96011;-41
2023/07/17 10:08:56;;;;;;;95.80;56.45;;;22.10;58.00;;;;;;4967389;28;96633;-41
2023/07/17 10:11:22;;;;;;;97.50;56.85;;;22.10;57.70;;;;;;4963382;28;95346;-42
2023/07/17 10:13:48;;;;;;;98.68;56.83;;;22.20;57.20;;;;;;4968355;28;95610;-42
2023/07/17 10:16:18;;;;;;;96.00;56.65;;;22.20;58.10;;;;;;4968285;28;98065;-41
2023/07/17 10:19:04;;;;;;;96.85;57.05;;;22.30;57.40;;;;;;4971492;28;95492;-46
2023/07/17 10:21:29;;;;;;;98.18;57.42;;;22.40;58.10;;;;;;4968787;28;95191;-44
2023/07/17 10:24:02;;;;;;;96.78;56.92;;;22.50;57.80;;;;;;4967572;28;96262;-42
2023/07/17 10:26:29;;;;;;;96.60;57.03;;;22.60;57.10;;;;;;4953699;28;94287;-45
2023/07/17 10:28:55;;;;;;;95.97;57.03;;;22.50;58.20;;;;;;4960621;28;95169;-42
2023/07/17 10:31:25;;;;;;;98.32;56.55;;;22.60;57.20;;;;;;4970832;28;95667;-44
2023/07/17 10:34:01;;;;;;;95.93;56.90;;;22.70;57.40;;;;;;4969620;28;98152;-42
2023/07/17 10:36:42;;;;;;;97.80;56.88;;;22.70;56.60;;;;;;4964334;28;96593;-42
2023/07/17 10:39:08;;;;;;;97.65;56.63;;;22.60;57.30;;;;;;4967451;28;96348;-43
2023/07/17 10:41:36;;;;;;;98.90;56.70;;;22.50;55.50;;;;;;4967788;28;95868;-45
2023/07/17 10:44:03;;;;;;;95.78;56.38;;;22.50;55.80;;;;;;4964843;28;95261;-44
2023/07/17 10:46:31;;;;;;;96.75;56.40;;;22.40;55.10;;;;;;4971251;28;95714;-42
2023/07/17 10:49:14;;;;;;;95.13;56.30;;;22.50;55.70;;;;;;4967514;28;96456;-43
2023/07/17 10:51:48;;;;;;;94.35;55.92;;;22.60;54.90;;;;;;4952013;28;94141;-43
2023/07/17 10:54:15;;;;;;;96.50;56.47;;;22.60;55.10;;;;;;4967953;28;95172;-42
2023/07/17 10:56:46;;;;;;;96.75;56.58;;;22.60;54.80;;;;;;4972729;28;95296;-42
2023/07/17 10:59:13;;;;;;;97.15;56.55;;;22.60;55.10;;;;;;4960790;28;97959;-45
2023/07/17 11:01:38;;;;;;;97.22;56.30;;;22.60;55.50;;;;;;4960604;28;95719;-42
2023/07/17 11:04:07;;;;;;;96.47;55.90;;;22.60;55.70;;;;;;4962111;28;94912;-46
2023/07/17 11:06:33;;;;;;;95.88;55.95;;;22.60;55.00;;;;;;4966934;28;95024;-43
2023/07/17 11:08:59;;;;;;;98.43;56.13;;;22.60;54.70;;;;;;4965401;28;96862;-41
2023/07/17 11:11:25;;;;;;;98.15;56.60;;;22.50;54.80;;;;;;4973899;28;94785;-43
2023/07/17 11:13:54;;;;;;;98.35;56.50;;;22.60;55.70;;;;;;4963555;28;95593;-42
2023/07/17 11:16:21;;;;;;;96.82;56.08;;;22.60;55.40;;;;;;4970732;28;96202;-42
2023/07/17 11:18:49;;;;;;;100.15;56.80;;;22.60;56.10;;;;;;4970680;28;96919;-42
2023/07/17 11:21:27;;;;;;;97.50;56.50;;;22.60;57.00;;;;;;4960715;28;94865;-45
2023/07/17 11:24:06;;;;;;;99.15;56.47;;;22.70;57.30;;;;;;4964265;28;97070;-42
2023/07/17 11:26:32;;;;;;;97.72;56.22;;;22.80;58.10;;;;;;4953666;28;97238;-41
2023/07/17 11:28:59;;;;;;;97.10;56.40;;;22.90;57.10;;;;;;4959710;28;96953;-41
2023/07/17 11:31:27;;;;;;;97.10;56.42;;;22.80;56.00;;;;;;4962776;28;96412;-42
2023/07/17 11:34:00;;;;;;;96.18;56.15;;;22.90;55.30;;;;;;4967680;28;96829;-44
2023/07/17 11:36:37;;;;;;;98.13;56.15;;;22.90;55.40;;;;;;4965870;28;95513;-41
2023/07/17 11:39:31;;;;;;;97.32;56.22;;;22.90;54.80;;;;;;4960638;28;96512;-41
2023/07/17 11:41:58;;;;;;;95.53;56.35;;;22.90;54.40;;;;;;4945665;28;95391;-41
2023/07/17 11:44:29;;;;;;;97.15;56.40;;;22.90;53.30;;;;;;4956733;28;95711;-42
2023/07/17 11:47:00;;;;;;;96.78;55.88;;;22.80;53.60;;;;;;4961170;28;95011;-42
2023/07/17 11:49:27;;;;;;;96.00;55.80;;;22.80;54.20;;;;;;4969342;28;96090;-41
2023/07/17 11:51:55;;;;;;;95.32;55.72;;;22.80;54.00;;;;;;4965827;28;94781;-41
2023/07/17 11:54:20;;;;;;;94.03;55.58;;;22.80;53.20;;;;;;4962453;28;95415;-41
2023/07/17 11:56:46;;;;;;;94.20;55.58;;;22.80;53.40;;;;;;4969012;28;94739;-44
2023/07/17 11:59:20;;;;;;;94.80;55.85;;;22.90;54.20;;;;;;4955882;28;95173;-43
2023/07/17 12:01:47;;;;;;;97.28;55.72;;;22.90;53.10;;;;;;4970738;28;94929;-42
2023/07/17 12:04:29;;;;;;;95.00;55.75;;;22.90;51.40;;;;;;4964577;28;95107;-42
2023/07/17 12:06:55;;;;;;;94.63;55.85;;;23.00;50.50;;;;;;4963950;28;95439;-42
2023/07/17 12:09:22;;;;;;;95.00;55.97;;;23.00;50.40;;;;;;4968703;28;97416;-41
2023/07/17 12:11:48;;;;;;;95.95;55.88;;;23.00;50.30;;;;;;4971957;28;95274;-43
2023/07/17 12:14:16;;;;;;;95.68;56.05;;;23.10;50.50;;;;;;4965893;28;98309;-42
2023/07/17 12:16:42;;;;;;;95.95;56.05;;;23.20;50.30;;;;;;4968461;28;95877;-41
2023/07/17 12:19:08;;;;;;;96.93;56.40;;;23.30;49.50;;;;;;4977022;28;96473;-41
2023/07/17 12:21:34;;;;;;;95.28;56.40;;;23.30;49.00;;;;;;4968998;28;95393;-41
2023/07/17 12:24:00;;;;;;;94.88;56.10;;;23.30;49.40;;;;;;4963463;28;99528;-41